Nearby METAR Reports  aus Husum-Schobuell

Datum und Uhrzeit beachten

ETNS - Schleswig(Ger-Na, Germany
Distance from station: E 31km
Updated: Sat, 15-Aug-2020 11:20:00 CEST

 Wind from ENE
Wind: ENE 15 km/h
Temperature: 25°C
Dew Point: 17°C
Humidity: 61%
Barometer: 1015 hPa
Visibility: 6 km
2020/08/15 09:20 ETNS 150920Z AUTO 06008KT 6000 // ////// 25/17 Q1015 ///
ETNH - Hohn (ger-Afb), Germany
Distance from station: ESE 39km
Updated: Sat, 15-Aug-2020 11:20:00 CEST
Few Clouds
Few Clouds
 Wind from NE
Wind: NE 15 km/h
Temperature: 25°C
Dew Point: 17°C
Humidity: 61%
Barometer: 1015 hPa
Clouds: Few Clouds
Visibility: 10 km
Cloud details: Few Clouds 2134 m
2020/08/15 09:20 ETNH 150920Z 05008KT 9999 FEW070 25/17 Q1015 BLU+BLU+
 
ETGG - Meierwik, Germany
Distance from station: NE 48km
Updated: Sat, 15-Aug-2020 11:20:00 CEST

 Wind from NE
Wind: NE 11 km/h
Temperature: 25°C
Dew Point: 15°C
Humidity: 54%
Barometer: 1015 hPa
Visibility: 10 km
2020/08/15 09:20 ETGG 150920Z AUTO 05006KT 9999 // ////// 25/15 Q1015 ///
EDXW - Westerland/Sylt, Germany
Distance from station: NW 65km
Updated: Sat, 15-Aug-2020 11:50:00 CEST
Clear
Clear
 Wind from NE
Wind: NE 15 km/h
Temperature: 23°C
Dew Point: 17°C
Humidity: 69%
Barometer: 1016 hPa
Summary: Clear
Visibility: greater than 10 km
2020/08/15 09:50 EDXW 150950Z 04008KT 010V070 CAVOK 23/17 Q1016
 
EDHK - Kiel/Holtenau Ci, Germany
Distance from station: E 73km
Updated: Sat, 15-Aug-2020 11:50:00 CEST
Clear
Clear
 Wind from NE
Wind: NE 11 km/h
Temperature: 23°C
Dew Point: 18°C
Humidity: 74%
Barometer: 1015 hPa
Summary: Clear
Visibility: greater than 10 km
2020/08/15 09:50 EDHK 150950Z 05006KT 020V090 CAVOK 23/18 Q1015
EKSP - Skrydstrup(Dan-A, Denmark
Distance from station: N 82km
Updated: Sat, 15-Aug-2020 11:50:00 CEST
Clear
Clear
 Wind from ENE
Wind: ENE 7 km/h
Temperature: 25°C
Dew Point: 14°C
Humidity: 51%
Barometer: 1016 hPa
Summary: Clear
Visibility: greater than 10 km
2020/08/15 09:50 EKSP 150950Z 06004KT 010V110 CAVOK 25/14 Q1016
 
EDDH - Hamburg/Fuhlsbut, Germany
Distance from station: SE 114km
Updated: Sat, 15-Aug-2020 11:50:00 CEST
Few Clouds
Few Clouds
 Wind from SE
Wind: SE 13 km/h
Temperature: 29°C
Heat Index: 29°C
Dew Point: 17°C
Humidity: 48%
Barometer: 1015 hPa
Clouds: Few Clouds
Visibility: 10 km
Cloud details: Few Clouds 1219 m
2020/08/15 09:50 EDDH 150950Z 14007KT 070V190 9999 FEW040 29/17 Q1015 NOSIG
EKEB - Esbjerg, Denmark
Distance from station: NNW 118km
Updated: Sat, 15-Aug-2020 10:50:00 CEST
NOT Current
Clear
Clear
 Wind from NNE
Wind: NNE 7 km/h
Temperature: 18°C
Dew Point: 18°C
Humidity: 100%
Barometer: 1017 hPa
Summary: Clear
Visibility: greater than 10 km
2020/08/15 08:50 EKEB 150850Z 02004KT 350V060 CAVOK 18/18 Q1017
 
EDHL - Luebeck/Blankens, Germany
Distance from station: SE 134km
Updated: Sat, 15-Aug-2020 11:50:00 CEST
Clear
Clear
 Wind from varies
Wind: varies 7 km/h
Temperature: 28°C
Heat Index: 28°C
Dew Point: 14°C
Humidity: 42%
Barometer: 1015 hPa
Summary: Clear
Visibility: greater than 10 km
2020/08/15 09:50 EDHL 150950Z VRB04KT CAVOK 28/14 Q1015
EKBI - Billund Airport, Denmark
Distance from station: N 136km
Updated: Sat, 15-Aug-2020 11:50:00 CEST
Clear
Clear
 Wind from varies
Wind: varies 4 km/h
Temperature: 25°C
Dew Point: 15°C
Humidity: 54%
Barometer: 1017 hPa
Clouds: Clear
Visibility: 10 km
2020/08/15 09:50 EKBI 150950Z AUTO VRB02KT 9999 NCD 25/15 Q1017

Metar display script from Saratoga-Weather.org

Home : schobuell-wetter.de